sensor_id;sensor_type;location;lat;lon;timestamp;temperature;humidity
70076;DHT22;63241;51.056;3.698;2023-07-20T07:09:29;32.20;43.70
70076;DHT22;63241;51.056;3.698;2023-07-20T07:16:22;31.50;45.00
70076;DHT22;63241;51.056;3.698;2023-07-20T07:19:08;33.40;43.00
70076;DHT22;63241;51.056;3.698;2023-07-20T07:21:55;33.70;42.00
70076;DHT22;63241;51.056;3.698;2023-07-20T07:24:41;35.90;39.00
70076;DHT22;63241;51.056;3.698;2023-07-20T07:27:27;38.30;34.30
70076;DHT22;63241;51.056;3.698;2023-07-20T07:30:13;38.20;33.30
70076;DHT22;63241;51.056;3.698;2023-07-20T07:33:00;37.20;33.90
70076;DHT22;63241;51.056;3.698;2023-07-20T07:35:46;35.90;34.90
70076;DHT22;63241;51.056;3.698;2023-07-20T07:38:33;34.30;36.60
70076;DHT22;63241;51.056;3.698;2023-07-20T07:41:19;33.30;38.80
70076;DHT22;63241;51.056;3.698;2023-07-20T07:44:05;33.20;39.20
70076;DHT22;63241;51.056;3.698;2023-07-20T07:46:51;33.00;38.80
70076;DHT22;63241;51.056;3.698;2023-07-20T07:49:38;34.80;39.00
70076;DHT22;63241;51.056;3.698;2023-07-20T07:52:25;35.80;35.60
70076;DHT22;63241;51.056;3.698;2023-07-20T07:55:11;35.60;35.30
70076;DHT22;63241;51.056;3.698;2023-07-20T07:57:57;35.40;35.10
70076;DHT22;63241;51.056;3.698;2023-07-20T08:00:43;35.80;35.20
70076;DHT22;63241;51.056;3.698;2023-07-20T08:03:30;37.50;34.70
70076;DHT22;63241;51.056;3.698;2023-07-20T08:06:16;41.30;29.60
70076;DHT22;63241;51.056;3.698;2023-07-20T08:09:02;43.50;26.50
70076;DHT22;63241;51.056;3.698;2023-07-20T08:11:49;42.40;26.20
70076;DHT22;63241;51.056;3.698;2023-07-20T08:14:35;41.70;27.60
70076;DHT22;63241;51.056;3.698;2023-07-20T08:17:22;43.20;27.30
70076;DHT22;63241;51.056;3.698;2023-07-20T08:20:09;42.10;26.30
70076;DHT22;63241;51.056;3.698;2023-07-20T08:22:57;39.90;27.40
70076;DHT22;63241;51.056;3.698;2023-07-20T08:25:44;37.80;29.70
70076;DHT22;63241;51.056;3.698;2023-07-20T08:28:30;36.50;31.60
70076;DHT22;63241;51.056;3.698;2023-07-20T08:31:17;35.10;33.30
70076;DHT22;63241;51.056;3.698;2023-07-20T08:34:03;34.40;34.10
70076;DHT22;63241;51.056;3.698;2023-07-20T08:36:49;33.70;35.20
70076;DHT22;63241;51.056;3.698;2023-07-20T08:39:36;33.50;36.30
70076;DHT22;63241;51.056;3.698;2023-07-20T08:42:23;33.50;36.90
70076;DHT22;63241;51.056;3.698;2023-07-20T08:45:09;34.00;36.40
70076;DHT22;63241;51.056;3.698;2023-07-20T08:47:58;34.40;35.20
70076;DHT22;63241;51.056;3.698;2023-07-20T08:50:49;34.40;35.00
70076;DHT22;63241;51.056;3.698;2023-07-20T08:53:37;34.70;34.70
70076;DHT22;63241;51.056;3.698;2023-07-20T08:56:25;35.20;35.80
70076;DHT22;63241;51.056;3.698;2023-07-20T08:59:14;37.10;31.80
70076;DHT22;63241;51.056;3.698;2023-07-20T09:02:01;37.20;30.50
70076;DHT22;63241;51.056;3.698;2023-07-20T10:00:16;32.60;34.70
70076;DHT22;63241;51.056;3.698;2023-07-20T10:03:06;32.50;35.30
70076;DHT22;63241;51.056;3.698;2023-07-20T10:06:02;32.80;35.30
70076;DHT22;63241;51.056;3.698;2023-07-20T10:08:56;33.90;35.20
70076;DHT22;63241;51.056;3.698;2023-07-20T10:11:41;35.80;32.30
70076;DHT22;63241;51.056;3.698;2023-07-20T10:14:29;39.00;29.60
70076;DHT22;63241;51.056;3.698;2023-07-20T10:17:17;42.70;26.00
70076;DHT22;63241;51.056;3.698;2023-07-20T10:20:04;45.20;23.30
70076;DHT22;63241;51.056;3.698;2023-07-20T10:22:54;46.40;22.40
70076;DHT22;63241;51.056;3.698;2023-07-20T10:25:42;46.10;21.20
70076;DHT22;63241;51.056;3.698;2023-07-20T10:28:29;46.20;21.30
70076;DHT22;63241;51.056;3.698;2023-07-20T10:31:16;45.40;21.80
70076;DHT22;63241;51.056;3.698;2023-07-20T10:47:13;43.70;21.50
70076;DHT22;63241;51.056;3.698;2023-07-20T10:50:01;42.50;22.10
70076;DHT22;63241;51.056;3.698;2023-07-20T10:55:45;40.10;23.80
70076;DHT22;63241;51.056;3.698;2023-07-20T10:58:34;39.10;24.80
70076;DHT22;63241;51.056;3.698;2023-07-20T11:01:20;38.50;25.50
70076;DHT22;63241;51.056;3.698;2023-07-20T11:04:08;37.80;26.00
70076;DHT22;63241;51.056;3.698;2023-07-20T11:06:58;36.70;26.80
70076;DHT22;63241;51.056;3.698;2023-07-20T11:09:45;35.50;27.50
70076;DHT22;63241;51.056;3.698;2023-07-20T11:12:32;34.90;28.60
70076;DHT22;63241;51.056;3.698;2023-07-20T11:15:18;34.50;29.50
70076;DHT22;63241;51.056;3.698;2023-07-20T11:18:14;34.20;30.60
70076;DHT22;63241;51.056;3.698;2023-07-20T11:21:00;33.40;30.60
70076;DHT22;63241;51.056;3.698;2023-07-20T11:23:48;32.70;31.50
70076;DHT22;63241;51.056;3.698;2023-07-20T11:29:32;31.30;33.90
70076;DHT22;63241;51.056;3.698;2023-07-20T11:32:22;30.90;34.30
70076;DHT22;63241;51.056;3.698;2023-07-20T11:35:12;30.40;35.20
70076;DHT22;63241;51.056;3.698;2023-07-20T11:37:58;30.20;36.30
70076;DHT22;63241;51.056;3.698;2023-07-20T11:40:46;30.10;36.50
70076;DHT22;63241;51.056;3.698;2023-07-20T11:43:32;29.80;36.90
70076;DHT22;63241;51.056;3.698;2023-07-20T11:46:18;29.80;37.60
70076;DHT22;63241;51.056;3.698;2023-07-20T11:49:05;29.80;38.10
70076;DHT22;63241;51.056;3.698;2023-07-20T11:51:51;29.30;39.00
70076;DHT22;63241;51.056;3.698;2023-07-20T11:54:41;29.20;39.70
70076;DHT22;63241;51.056;3.698;2023-07-20T11:57:28;28.90;40.00
70076;DHT22;63241;51.056;3.698;2023-07-20T12:00:14;28.70;40.90
70076;DHT22;63241;51.056;3.698;2023-07-20T12:08:24;28.00;42.80
70076;DHT22;63241;51.056;3.698;2023-07-20T12:11:10;28.00;43.60
70076;DHT22;63241;51.056;3.698;2023-07-20T12:13:58;28.10;43.80
70076;DHT22;63241;51.056;3.698;2023-07-20T12:16:44;28.60;43.00
70076;DHT22;63241;51.056;3.698;2023-07-20T12:19:32;29.40;42.30
70076;DHT22;63241;51.056;3.698;2023-07-20T12:35:18;34.60;32.60
70076;DHT22;63241;51.056;3.698;2023-07-20T12:38:04;33.80;33.50
70076;DHT22;63241;51.056;3.698;2023-07-20T12:40:51;34.20;34.40
70076;DHT22;63241;51.056;3.698;2023-07-20T12:43:37;35.30;33.30
70076;DHT22;63241;51.056;3.698;2023-07-20T12:46:23;36.70;30.50
70076;DHT22;63241;51.056;3.698;2023-07-20T12:49:10;37.90;29.20
70076;DHT22;63241;51.056;3.698;2023-07-20T12:51:56;38.50;28.00
70076;DHT22;63241;51.056;3.698;2023-07-20T12:54:43;38.90;26.80
70076;DHT22;63241;51.056;3.698;2023-07-20T12:57:29;39.10;26.60
70076;DHT22;63241;51.056;3.698;2023-07-20T13:00:15;39.70;25.60
70076;DHT22;63241;51.056;3.698;2023-07-20T13:03:01;39.10;25.50
70076;DHT22;63241;51.056;3.698;2023-07-20T13:05:49;38.30;26.40
70076;DHT22;63241;51.056;3.698;2023-07-20T13:08:35;37.30;27.10
70076;DHT22;63241;51.056;3.698;2023-07-20T13:11:21;36.50;28.30
70076;DHT22;63241;51.056;3.698;2023-07-20T13:14:07;35.90;29.00
70076;DHT22;63241;51.056;3.698;2023-07-20T13:29:54;33.10;31.80
70076;DHT22;63241;51.056;3.698;2023-07-20T13:33:03;32.60;33.00
70076;DHT22;63241;51.056;3.698;2023-07-20T13:36:13;32.10;33.70
70076;DHT22;63241;51.056;3.698;2023-07-20T13:38:59;31.50;34.30
70076;DHT22;63241;51.056;3.698;2023-07-20T13:41:45;30.90;36.00
70076;DHT22;63241;51.056;3.698;2023-07-20T13:55:30;28.50;40.90
70076;DHT22;63241;51.056;3.698;2023-07-20T13:58:18;28.20;41.60
70076;DHT22;63241;51.056;3.698;2023-07-20T14:05:06;27.40;46.90
70076;DHT22;63241;51.056;3.698;2023-07-20T14:07:53;27.00;54.60
70076;DHT22;63241;51.056;3.698;2023-07-20T14:10:39;26.60;53.80
70076;DHT22;63241;51.056;3.698;2023-07-20T14:34:33;24.60;65.20
70076;DHT22;63241;51.056;3.698;2023-07-20T14:37:19;24.50;65.10
70076;DHT22;63241;51.056;3.698;2023-07-20T14:44:10;24.50;66.80
70076;DHT22;63241;51.056;3.698;2023-07-20T14:55:21;24.60;66.70
70076;DHT22;63241;51.056;3.698;2023-07-20T14:58:16;24.40;65.80
70076;DHT22;63241;51.056;3.698;2023-07-20T15:01:03;24.20;66.00
70076;DHT22;63241;51.056;3.698;2023-07-20T15:03:49;24.00;68.40
70076;DHT22;63241;51.056;3.698;2023-07-20T15:06:37;23.60;67.50
70076;DHT22;63241;51.056;3.698;2023-07-20T15:09:43;23.20;68.30
70076;DHT22;63241;51.056;3.698;2023-07-20T15:12:43;22.80;70.40
70076;DHT22;63241;51.056;3.698;2023-07-20T15:15:30;22.60;71.50
70076;DHT22;63241;51.056;3.698;2023-07-20T15:30:23;22.70;74.20
70076;DHT22;63241;51.056;3.698;2023-07-20T15:33:09;22.80;73.70
70076;DHT22;63241;51.056;3.698;2023-07-20T15:39:59;22.70;73.20
70076;DHT22;63241;51.056;3.698;2023-07-20T15:42:47;22.60;73.10
70076;DHT22;63241;51.056;3.698;2023-07-20T15:45:33;22.60;74.80
70076;DHT22;63241;51.056;3.698;2023-07-20T15:53:43;23.80;73.50
70076;DHT22;63241;51.056;3.698;2023-07-20T15:56:29;24.00;73.20
70076;DHT22;63241;51.056;3.698;2023-07-20T15:59:16;24.10;71.30
70076;DHT22;63241;51.056;3.698;2023-07-20T16:06:13;23.70;72.40
70076;DHT22;63241;51.056;3.698;2023-07-20T16:08:59;23.80;72.20
70076;DHT22;63241;51.056;3.698;2023-07-20T16:11:45;23.60;72.90
70076;DHT22;63241;51.056;3.698;2023-07-20T16:14:32;23.40;69.30
70076;DHT22;63241;51.056;3.698;2023-07-20T16:17:55;23.30;70.70
70076;DHT22;63241;51.056;3.698;2023-07-20T16:20:50;23.20;69.70
70076;DHT22;63241;51.056;3.698;2023-07-20T16:23:38;23.00;68.10
70076;DHT22;63241;51.056;3.698;2023-07-20T16:26:24;22.90;69.70
70076;DHT22;63241;51.056;3.698;2023-07-20T16:29:32;22.80;68.20
70076;DHT22;63241;51.056;3.698;2023-07-20T17:06:34;22.90;68.50
70076;DHT22;63241;51.056;3.698;2023-07-20T17:09:20;23.00;67.40
70076;DHT22;63241;51.056;3.698;2023-07-20T17:15:52;23.40;64.90
70076;DHT22;63241;51.056;3.698;2023-07-20T17:18:38;23.30;64.30
70076;DHT22;63241;51.056;3.698;2023-07-20T17:21:25;23.10;65.30
